Time;durP1;ratioP1;P1;durP2;ratioP2;P2;SDS_P1;SDS_P2;PMS_P1;PMS_P2;Temp;Humidity;BMP_temperature;BMP_pressure;BME280_temperature;BME280_humidity;BME280_pressure;Samples;Min_cycle;Max_cycle;Signal;HPM_P1;HPM_P2
2022/05/15 00:02:00;;;;;;;13.45;4.07;;;;;;;19.68;70.98;100677.56;5020107;28;20029;-92
2022/05/15 00:04:26;;;;;;;9.95;4.05;;;;;;;19.66;71.26;100676.09;5018834;28;20034;-91
2022/05/15 00:06:53;;;;;;;11.95;4.13;;;;;;;19.59;72.63;100678.84;5003652;28;20029;-91
2022/05/15 00:09:19;;;;;;;8.85;4.07;;;;;;;19.41;72.85;100678.75;5003645;28;20444;-91
2022/05/15 00:11:46;;;;;;;10.90;4.25;;;;;;;19.47;72.23;100676.03;5017098;28;20038;-89
2022/05/15 00:14:20;;;;;;;9.98;4.03;;;;;;;19.64;71.26;100672.81;5022949;28;20049;-91
2022/05/15 00:16:53;;;;;;;12.73;4.70;;;;;;;19.46;72.99;100676.22;5022136;28;20041;-91
2022/05/15 00:19:19;;;;;;;8.02;4.45;;;;;;;19.53;72.57;100669.78;5017703;28;20497;-91
2022/05/15 00:21:45;;;;;;;7.80;3.67;;;;;;;19.67;72.40;100667.84;5022178;28;20109;-93
2022/05/15 00:24:11;;;;;;;11.65;4.80;;;;;;;19.26;74.88;100672.81;4997829;28;20038;-92
2022/05/15 00:26:38;;;;;;;10.88;4.70;;;;;;;19.03;76.71;100670.63;5019574;28;20045;-94
2022/05/15 00:29:08;;;;;;;10.98;4.85;;;;;;;19.06;77.58;100670.22;5001431;28;20388;-91
2022/05/15 00:31:33;;;;;;;9.52;5.05;;;;;;;19.21;77.03;100672.63;5001910;28;20038;-91
2022/05/15 00:33:59;;;;;;;10.88;4.70;;;;;;;19.30;76.86;100677.53;5001299;28;20450;-94
2022/05/15 00:36:25;;;;;;;11.75;4.90;;;;;;;19.38;76.64;100679.16;5000460;28;20030;-90
2022/05/15 00:38:51;;;;;;;15.15;4.80;;;;;;;19.09;79.06;100673.28;4984489;28;20394;-92
2022/05/15 00:41:17;;;;;;;11.32;4.25;;;;;;;19.29;77.83;100680.47;5002816;28;20044;-90
2022/05/15 00:43:49;;;;;;;11.48;4.43;;;;;;;19.43;76.38;100676.66;5006453;28;20042;-92
2022/05/15 00:46:23;;;;;;;8.75;4.50;;;;;;;19.47;75.30;100677.88;5000921;28;20038;-90
2022/05/15 00:48:51;;;;;;;14.65;5.07;;;;;;;19.39;75.92;100675.44;5007469;28;20090;-90
2022/05/15 00:51:35;;;;;;;12.60;4.60;;;;;;;19.45;75.40;100682.66;5004202;28;20042;-91
2022/05/15 00:54:11;;;;;;;14.68;4.75;;;;;;;19.24;75.03;100688.31;5003396;28;20065;-91
2022/05/15 00:56:45;;;;;;;12.57;4.60;;;;;;;19.15;75.12;100684.25;5004527;28;20081;-90
2022/05/15 00:59:14;;;;;;;13.15;4.65;;;;;;;19.02;75.82;100685.94;5011596;28;20030;-92
2022/05/15 01:01:43;;;;;;;9.40;4.35;;;;;;;18.84;76.63;100683.13;4990245;28;20030;-90
2022/05/15 01:04:09;;;;;;;9.25;4.15;;;;;;;18.92;76.83;100684.75;5002038;28;20477;-89
2022/05/15 01:06:43;;;;;;;10.95;4.57;;;;;;;18.83;77.15;100689.53;4985999;28;20037;-94
2022/05/15 01:09:11;;;;;;;13.38;4.22;;;;;;;18.63;78.05;100686.06;4984870;28;20120;-93
2022/05/15 01:11:39;;;;;;;16.65;4.55;;;;;;;18.57;78.38;100682.38;4984036;28;20420;-91
2022/05/15 01:14:12;;;;;;;14.80;4.35;;;;;;;18.58;78.80;100673.28;5000131;28;20037;-92
2022/05/15 01:16:38;;;;;;;;;;;;;;;18.51;79.39;100677.00;4984917;28;20097;-89
2022/05/15 01:19:05;;;;;;;8.68;4.43;;;;;;;18.49;79.47;100673.69;5001730;28;20376;-91
2022/05/15 01:21:37;;;;;;;14.85;4.63;;;;;;;18.48;79.69;100678.25;4985151;28;20030;-91
2022/05/15 01:24:04;;;;;;;;;;;;;;;18.59;79.33;100679.50;5004052;28;20172;-89
2022/05/15 01:26:33;;;;;;;11.98;5.25;;;;;;;18.57;79.43;100681.53;4987081;28;19948;-88
2022/05/15 01:28:59;;;;;;;9.32;4.93;;;;;;;18.64;78.58;100676.97;4987629;28;20038;-91
2022/05/15 01:31:25;;;;;;;9.70;4.82;;;;;;;18.61;79.54;100685.47;5003454;28;20026;-90
2022/05/15 01:33:53;;;;;;;10.00;4.75;;;;;;;18.52;80.16;100676.81;5021408;28;20034;-91
2022/05/15 01:36:23;;;;;;;8.55;4.45;;;;;;;18.51;80.06;100682.38;4999510;28;20022;-90
2022/05/15 01:38:50;;;;;;;6.82;4.03;;;;;;;18.49;80.43;100676.38;5000225;28;20057;-91
2022/05/15 01:41:17;;;;;;;11.30;4.45;;;;;;;18.42;80.82;100673.72;4999098;28;20389;-92
2022/05/15 01:43:49;;;;;;;15.68;5.18;;;;;;;18.49;80.10;100679.06;4985606;28;20038;-90
2022/05/15 01:46:15;;;;;;;11.75;5.03;;;;;;;18.69;79.46;100679.88;5003741;28;20038;-92
2022/05/15 01:48:42;;;;;;;9.45;4.95;;;;;;;18.90;78.00;100681.44;4992240;28;20492;-92
2022/05/15 01:51:10;;;;;;;7.63;4.38;;;;;;;18.59;79.86;100684.84;4990894;28;20054;-89
2022/05/15 01:57:22;;;;;;;17.23;5.35;;;;;;;18.30;82.30;100674.53;5038562;28;20105;-92
2022/05/15 01:59:49;;;;;;;12.15;4.43;;;;;;;18.48;80.68;100677.41;4988651;28;20022;-91
2022/05/15 02:02:17;;;;;;;10.63;4.97;;;;;;;18.64;80.15;100671.63;5019867;28;20038;-91
2022/05/15 02:04:45;;;;;;;11.95;4.70;;;;;;;18.71;79.02;100676.97;5009436;28;20427;-91
2022/05/15 02:07:11;;;;;;;11.07;4.80;;;;;;;18.56;80.23;100685.25;5001362;28;20025;-90
2022/05/15 02:09:37;;;;;;;11.00;5.38;;;;;;;18.54;80.65;100685.47;5017130;28;20033;-91
2022/05/15 02:12:03;;;;;;;9.75;4.55;;;;;;;18.64;79.91;100694.94;5000780;28;20034;-91
2022/05/15 02:18:24;;;;;;;12.98;5.30;;;;;;;18.52;80.92;100690.25;5035712;28;20069;-90
2022/05/15 02:20:50;;;;;;;11.63;5.32;;;;;;;18.42;81.94;100694.34;5002599;28;20042;-91
2022/05/15 02:23:16;;;;;;;12.57;4.68;;;;;;;18.29;83.69;100680.97;4984198;28;20173;-90
2022/05/15 02:25:42;;;;;;;14.93;5.40;;;;;;;18.28;83.29;100688.16;4983330;28;20072;-92
2022/05/15 02:28:09;;;;;;;15.40;4.85;;;;;;;18.38;82.93;100688.56;4983779;28;20038;-91
2022/05/15 02:30:35;;;;;;;15.63;5.25;;;;;;;18.18;84.33;100681.56;4997671;28;20098;-93
2022/05/15 02:33:01;;;;;;;16.80;5.53;;;;;;;18.03;86.01;100679.91;4998902;28;20037;-92
2022/05/15 02:35:27;;;;;;;12.55;5.80;;;;;;;18.09;85.99;100680.97;4999556;28;20092;-90
2022/05/15 02:37:53;;;;;;;10.18;5.38;;;;;;;18.16;85.74;100675.59;4998445;28;20034;-90
2022/05/15 02:40:22;;;;;;;10.23;5.75;;;;;;;18.15;86.44;100676.63;4983261;28;20115;-92
2022/05/15 02:42:48;;;;;;;15.63;5.50;;;;;;;18.08;87.10;100679.31;4986666;28;20493;-90
2022/05/15 02:45:16;;;;;;;11.90;5.72;;;;;;;18.06;86.85;100682.19;4987578;28;20120;-89
2022/05/15 02:47:42;;;;;;;17.20;5.75;;;;;;;17.96;88.02;100671.03;4983048;28;20034;-91
2022/05/15 02:52:57;;;;;;;10.55;5.43;;;;;;;18.01;88.69;100682.00;5019914;28;20034;-89
2022/05/15 02:55:24;;;;;;;13.48;5.85;;;;;;;18.02;88.43;100675.59;5001100;28;20038;-91
2022/05/15 02:57:50;;;;;;;12.80;5.82;;;;;;;18.22;87.44;100678.28;5001165;28;20097;-90
2022/05/15 03:00:20;;;;;;;11.93;5.47;;;;;;;18.15;88.38;100684.66;5001454;28;20125;-90
2022/05/15 03:02:46;;;;;;;9.98;5.90;;;;;;;18.17;88.35;100682.59;5002593;28;20455;-91
2022/05/15 03:05:15;;;;;;;11.13;5.60;;;;;;;18.24;87.64;100675.38;4987092;28;20038;-91
2022/05/15 03:07:42;;;;;;;14.43;5.72;;;;;;;18.22;87.71;100685.50;5019152;28;20065;-93
2022/05/15 03:10:11;;;;;;;11.82;5.95;;;;;;;18.11;88.47;100675.38;4985559;28;20065;-92
2022/05/15 03:12:37;;;;;;;12.73;5.25;;;;;;;18.08;88.80;100676.63;5002538;28;20046;-90
2022/05/15 03:15:05;;;;;;;12.18;5.22;;;;;;;18.01;89.65;100683.84;5003104;28;20492;-92
2022/05/15 03:17:32;;;;;;;16.75;5.43;;;;;;;17.91;90.10;100686.13;5002876;28;20030;-92
2022/05/15 03:19:58;;;;;;;8.60;5.25;;;;;;;17.80;91.45;100684.88;5020878;28;20034;-88
2022/05/15 03:22:24;;;;;;;13.55;5.45;;;;;;;17.82;90.94;100682.00;5003819;28;20084;-92
2022/05/15 03:24:49;;;;;;;20.98;6.03;;;;;;;17.80;90.92;100684.88;4986469;28;20034;-89
2022/05/15 03:27:16;;;;;;;9.60;5.40;;;;;;;17.84;91.05;100688.78;5003352;28;20034;-91
2022/05/15 03:29:42;;;;;;;14.35;5.70;;;;;;;17.84;90.38;100685.28;4969406;28;20046;-92
2022/05/15 03:32:08;;;;;;;17.77;5.97;;;;;;;17.87;90.10;100682.19;5000908;28;20045;-91
2022/05/15 03:34:35;;;;;;;13.07;5.10;;;;;;;17.90;89.89;100690.66;4987019;28;20049;-90
2022/05/15 03:37:01;;;;;;;9.35;5.15;;;;;;;17.79;90.79;100683.22;5011348;28;20030;-90
2022/05/15 03:39:26;;;;;;;10.10;5.40;;;;;;;17.71;91.22;100691.47;5037955;28;20037;-92
2022/05/15 03:41:52;;;;;;;14.18;5.72;;;;;;;17.74;91.30;100695.56;5021761;28;20037;-91
2022/05/15 03:44:19;;;;;;;13.32;6.07;;;;;;;17.64;91.76;100685.25;4988170;28;20030;-91
2022/05/15 03:46:45;;;;;;;14.77;6.07;;;;;;;17.57;92.05;100689.78;5022642;28;20045;-90
2022/05/15 03:49:17;;;;;;;16.50;5.60;;;;;;;17.53;92.75;100696.56;5003283;28;20074;-93
2022/05/15 03:51:43;;;;;;;16.27;4.57;;;;;;;17.53;92.68;100694.69;5006475;28;20527;-90
2022/05/15 03:54:11;;;;;;;15.35;5.45;;;;;;;17.69;92.05;100688.16;5021869;28;20281;-91
2022/05/15 03:56:51;;;;;;;15.10;6.00;;;;;;;17.60;92.27;100697.41;5002586;28;20129;-92
2022/05/15 03:59:41;;;;;;;18.48;5.82;;;;;;;17.72;91.47;100694.97;4986727;28;20129;-91
2022/05/15 04:02:09;;;;;;;14.18;5.95;;;;;;;17.54;93.24;100693.66;4999905;28;20049;-89
2022/05/15 04:04:35;;;;;;;14.63;6.00;;;;;;;17.48;93.30;100690.97;4999686;28;20033;-92
2022/05/15 04:07:02;;;;;;;15.15;6.03;;;;;;;17.45;93.61;100699.41;4999581;28;20038;-90
2022/05/15 04:09:30;;;;;;;12.13;5.60;;;;;;;17.64;92.77;100690.63;5001787;28;20061;-92
2022/05/15 04:11:57;;;;;;;18.52;6.38;;;;;;;17.70;92.03;100694.34;5000433;28;20101;-87
2022/05/15 04:14:23;;;;;;;13.27;6.07;;;;;;;17.73;91.87;100697.44;4997219;28;20038;-85
2022/05/15 04:16:48;;;;;;;11.80;6.22;;;;;;;17.87;91.49;100701.78;4997291;28;20037;-88
2022/05/15 04:19:14;;;;;;;14.30;5.88;;;;;;;17.93;91.08;100700.16;4996928;28;20046;-85
2022/05/15 04:21:40;;;;;;;13.68;6.00;;;;;;;18.12;90.02;100715.44;4996730;28;20057;-86
2022/05/15 04:24:09;;;;;;;9.18;6.07;;;;;;;18.14;89.59;100707.16;5014764;28;20025;-86
2022/05/15 04:26:36;;;;;;;18.58;6.72;;;;;;;17.91;91.65;100705.72;4997756;28;20162;-86
2022/05/15 04:29:03;;;;;;;16.50;6.30;;;;;;;17.65;93.78;100703.00;5014340;28;20113;-86
2022/05/15 04:31:28;;;;;;;12.27;6.53;;;;;;;17.56;95.70;100698.88;5015653;28;20057;-85
2022/05/15 04:33:54;;;;;;;14.45;6.93;;;;;;;17.53;96.08;100704.59;5016800;28;20030;-87
2022/05/15 04:36:21;;;;;;;13.13;6.38;;;;;;;17.44;97.48;100708.47;4996273;28;20026;-85
2022/05/15 04:38:46;;;;;;;9.90;5.72;;;;;;;17.36;98.41;100706.81;5013522;28;20543;-88
2022/05/15 04:41:12;;;;;;;11.25;6.38;;;;;;;17.36;98.91;100704.16;5014492;28;20026;-85
2022/05/15 04:43:37;;;;;;;14.75;6.88;;;;;;;17.34;99.66;100705.34;5014493;28;20026;-87
2022/05/15 04:46:07;;;;;;;13.35;6.80;;;;;;;17.52;99.53;100713.66;5014849;28;20464;-86
2022/05/15 04:48:35;;;;;;;13.30;7.40;;;;;;;17.58;100.00;100718.25;4996804;28;20404;-86
2022/05/15 04:51:01;;;;;;;20.63;7.07;;;;;;;17.61;99.84;100715.16;4996324;28;20037;-87
2022/05/15 04:53:27;;;;;;;18.48;7.15;;;;;;;17.62;100.00;100708.78;5013917;28;20034;-84
2022/05/15 04:55:53;;;;;;;15.27;7.13;;;;;;;17.71;99.11;100720.94;5014584;28;20034;-87
2022/05/15 04:58:19;;;;;;;12.30;6.63;;;;;;;17.91;97.66;100719.13;5025664;28;20065;-86
2022/05/15 05:00:45;;;;;;;13.02;7.10;;;;;;;18.17;96.49;100723.66;5019207;28;20057;-87
2022/05/15 05:03:12;;;;;;;12.98;6.63;;;;;;;18.38;93.78;100719.94;5016203;28;20085;-87
2022/05/15 05:05:38;;;;;;;13.30;6.68;;;;;;;18.57;92.61;100721.81;5014174;28;20480;-87
2022/05/15 05:08:05;;;;;;;20.77;7.15;;;;;;;18.53;93.23;100726.75;5014210;28;20033;-87
2022/05/15 05:10:30;;;;;;;14.98;7.50;;;;;;;18.45;93.84;100721.59;5013650;28;20082;-86
2022/05/15 05:12:56;;;;;;;14.82;7.25;;;;;;;18.49;94.31;100722.00;5013421;28;20461;-87
2022/05/15 05:15:21;;;;;;;25.70;7.28;;;;;;;18.51;94.61;100719.97;4980160;28;20464;-88
2022/05/15 05:17:47;;;;;;;17.80;7.18;;;;;;;18.50;94.81;100721.00;5013673;28;20033;-87
2022/05/15 05:20:14;;;;;;;21.38;6.30;;;;;;;18.50;95.39;100723.66;5013907;28;20072;-86
2022/05/15 05:22:40;;;;;;;19.48;7.00;;;;;;;18.59;94.14;100727.81;4980099;28;20409;-85
2022/05/15 05:25:06;;;;;;;17.27;6.68;;;;;;;18.77;92.86;100730.66;5013471;28;20041;-86
2022/05/15 05:27:31;;;;;;;13.65;6.70;;;;;;;18.98;92.31;100733.06;5018729;28;20038;-88
2022/05/15 05:29:57;;;;;;;15.70;7.43;;;;;;;19.00;92.18;100731.00;5013853;28;20056;-87
2022/05/15 05:32:23;;;;;;;12.15;6.80;;;;;;;19.19;91.42;100733.84;5013721;28;20469;-89
2022/05/15 05:34:49;;;;;;;17.08;7.32;;;;;;;19.30;90.90;100736.66;5013447;28;20030;-86
2022/05/15 05:37:17;;;;;;;16.20;7.18;;;;;;;19.44;90.83;100737.47;5013334;28;20128;-88
2022/05/15 05:39:44;;;;;;;14.63;7.35;;;;;;;19.73;88.77;100736.88;5014373;28;20041;-85
2022/05/15 05:42:10;;;;;;;13.95;7.10;;;;;;;19.74;88.60;100738.53;5015753;28;20428;-86
2022/05/15 05:44:36;;;;;;;12.60;6.43;;;;;;;19.99;87.66;100743.94;5014465;28;20030;-87
2022/05/15 05:47:04;;;;;;;15.02;6.05;;;;;;;20.33;86.47;100745.38;5015359;28;20409;-88
2022/05/15 05:49:30;;;;;;;12.35;5.97;;;;;;;20.39;84.21;100752.56;5017943;28;20034;-84
2022/05/15 05:51:56;;;;;;;13.25;6.10;;;;;;;20.46;83.72;100756.03;5016947;28;20402;-84
2022/05/15 05:54:22;;;;;;;12.85;6.47;;;;;;;20.41;82.34;100758.56;5014525;28;20026;-86
2022/05/15 05:56:48;;;;;;;19.35;5.65;;;;;;;20.62;80.73;100753.59;5015532;28;20041;-87
2022/05/15 05:59:13;;;;;;;12.38;6.32;;;;;;;20.75;79.33;100749.94;5018382;28;20042;-86
2022/05/15 06:01:39;;;;;;;10.40;6.03;;;;;;;21.29;77.74;100759.09;5027072;28;20038;-85
2022/05/15 06:06:48;;;;;;;15.98;6.45;;;;;;;21.68;73.90;100758.59;5029460;28;20109;-86
2022/05/15 06:09:14;;;;;;;16.00;6.00;;;;;;;22.22;71.06;100757.59;5008511;28;20042;-85
2022/05/15 06:11:42;;;;;;;12.45;5.78;;;;;;;22.62;68.71;100763.16;5025497;28;20421;-85
2022/05/15 06:14:08;;;;;;;11.15;6.10;;;;;;;23.39;63.66;100766.47;5020765;28;20049;-87
2022/05/15 06:16:34;;;;;;;11.43;5.55;;;;;;;23.56;61.45;100770.09;5026946;28;20038;-89
2022/05/15 06:19:00;;;;;;;11.57;5.50;;;;;;;24.16;58.83;100768.50;5026028;28;20041;-92
2022/05/15 06:21:26;;;;;;;12.25;4.97;;;;;;;23.93;59.98;100771.31;5034845;28;20038;-91
2022/05/15 06:23:51;;;;;;;13.82;5.07;;;;;;;23.99;58.49;100772.25;5019891;28;20034;-90
2022/05/15 06:26:17;;;;;;;10.88;4.80;;;;;;;24.15;57.16;100772.31;5018922;28;20044;-92
2022/05/15 06:28:43;;;;;;;12.82;5.00;;;;;;;23.63;57.61;100779.69;5005487;28;20073;-90
2022/05/15 06:31:08;;;;;;;10.60;4.70;;;;;;;24.38;57.39;100776.75;4989300;28;20045;-91
2022/05/15 06:33:34;;;;;;;8.95;5.15;;;;;;;24.64;54.92;100775.25;5003476;28;20183;-90
2022/05/15 06:36:03;;;;;;;11.07;4.50;;;;;;;25.42;52.06;100785.03;5002520;28;20041;-89
2022/05/15 06:38:28;;;;;;;13.07;4.70;;;;;;;25.22;50.99;100782.88;5000801;28;20109;-89
2022/05/15 06:40:55;;;;;;;11.75;4.38;;;;;;;25.41;50.82;100781.47;5017446;28;20529;-90
2022/05/15 06:43:21;;;;;;;8.98;4.47;;;;;;;25.86;49.98;100783.91;5022440;28;20034;-88
2022/05/15 06:45:48;;;;;;;12.55;4.85;;;;;;;25.95;49.76;100781.56;5003896;28;20041;-86
2022/05/15 06:48:14;;;;;;;12.85;4.70;;;;;;;26.19;48.92;100783.72;5003468;28;20042;-86
2022/05/15 06:50:41;;;;;;;9.10;4.88;;;;;;;26.26;47.46;100782.66;5020579;28;20054;-88
2022/05/15 06:53:12;;;;;;;10.75;4.82;;;;;;;26.41;46.97;100780.91;5020458;28;20033;-83
2022/05/15 06:57:28;;;;;;;10.50;4.45;;;;;;;26.43;45.15;100777.91;4986328;28;20749;-85
2022/05/15 06:58:23;;;;;;;14.32;5.00;;;;;;;26.49;45.71;100774.97;5020398;28;20056;-87
2022/05/15 07:00:51;;;;;;;9.82;5.20;;;;;;;26.26;45.92;100779.94;5020525;28;20124;-92
2022/05/15 07:03:17;;;;;;;12.73;4.70;;;;;;;26.11;45.97;100784.16;5024765;28;20057;-89
2022/05/15 07:05:46;;;;;;;8.65;4.57;;;;;;;26.80;45.34;100777.91;5004565;28;20038;-85
2022/05/15 07:08:11;;;;;;;14.32;5.25;;;;;;;26.14;45.83;100782.81;5020763;28;20025;-92
2022/05/15 07:10:38;;;;;;;11.55;5.20;;;;;;;26.50;45.11;100783.97;5015949;28;20039;-91
2022/05/15 07:13:04;;;;;;;14.05;5.32;;;;;;;26.24;46.90;100776.69;5005312;28;20030;-91
2022/05/15 07:15:30;;;;;;;11.48;4.85;;;;;;;26.19;48.56;100781.00;5007831;28;20068;-89
2022/05/15 07:17:56;;;;;;;9.43;4.80;;;;;;;26.91;46.16;100775.03;5003350;28;20042;-85
2022/05/15 07:20:22;;;;;;;12.85;5.28;;;;;;;27.33;45.65;100768.69;4998646;28;20044;-90
2022/05/15 07:22:47;;;;;;;15.95;6.10;;;;;;;26.30;46.76;100779.19;5016008;28;20169;-88
2022/05/15 07:25:13;;;;;;;9.18;5.10;;;;;;;25.85;48.80;100778.75;4980516;28;20127;-88
2022/05/15 07:27:38;;;;;;;15.23;5.40;;;;;;;25.48;49.89;100776.69;4996454;28;20038;-87
2022/05/15 07:30:05;;;;;;;15.85;5.72;;;;;;;25.59;49.77;100777.63;5016146;28;20045;-87
2022/05/15 07:32:30;;;;;;;13.48;5.70;;;;;;;25.76;50.31;100775.66;5017572;28;20070;-86
2022/05/15 07:34:56;;;;;;;13.60;5.35;;;;;;;25.87;49.50;100784.72;5013891;28;20044;-87
2022/05/15 07:37:21;;;;;;;16.10;5.60;;;;;;;25.95;49.23;100771.50;5015990;28;20404;-89
2022/05/15 07:42:16;;;;;;;10.95;5.57;;;;;;;27.38;45.87;100774.13;5020891;28;20069;-90
2022/05/15 07:44:42;;;;;;;11.50;5.80;;;;;;;27.95;44.41;100774.88;5009011;28;20034;-92
2022/05/15 07:47:08;;;;;;;18.40;6.70;;;;;;;27.79;44.91;100770.50;5021078;28;20041;-91
2022/05/15 07:49:37;;;;;;;12.23;6.13;;;;;;;28.29;43.93;100774.38;5023913;28;20105;-91
2022/05/15 07:52:03;;;;;;;17.77;5.78;;;;;;;28.25;43.00;100771.38;5022291;28;20036;-93
2022/05/15 07:54:33;;;;;;;10.48;5.65;;;;;;;27.38;44.19;100768.69;5024996;28;20084;-90
2022/05/15 07:56:59;;;;;;;15.07;5.38;;;;;;;27.43;45.22;100771.44;5021984;28;20045;-91
2022/05/15 07:59:28;;;;;;;17.25;5.85;;;;;;;27.46;46.19;100770.94;5025622;28;20030;-87
2022/05/15 08:01:58;;;;;;;11.88;5.80;;;;;;;27.51;45.41;100769.03;5033107;28;20092;-87
2022/05/15 08:04:23;;;;;;;14.77;6.07;;;;;;;27.82;46.56;100763.69;4995233;28;20046;-89
2022/05/15 08:09:33;;;;;;;20.75;7.38;;;;;;;27.93;44.71;100759.88;5015257;28;20111;-82
2022/05/15 08:11:59;;;;;;;16.38;7.10;;;;;;;28.30;43.89;100765.13;5015602;28;20030;-85
2022/05/15 08:14:24;;;;;;;12.10;6.78;;;;;;;28.34;43.88;100758.03;5014238;28;20034;-86
2022/05/15 08:16:50;;;;;;;12.75;6.68;;;;;;;28.39;44.03;100758.00;5013170;28;20227;-86
2022/05/15 08:24:45;;;;;;;19.75;7.07;;;;;;;28.74;43.81;100761.53;5022503;28;20029;-86
2022/05/15 08:27:11;;;;;;;14.02;7.32;;;;;;;28.93;42.97;100764.50;5025012;28;20731;-91
2022/05/15 08:29:38;;;;;;;22.40;7.78;;;;;;;28.99;42.14;100768.03;5030862;28;20056;-86
2022/05/15 08:32:06;;;;;;;15.13;7.38;;;;;;;28.82;43.19;100764.78;5033799;28;20033;-87
2022/05/15 08:34:32;;;;;;;17.73;7.57;;;;;;;28.82;44.13;100757.44;5023779;28;20061;-86
2022/05/15 08:37:00;;;;;;;15.10;7.78;;;;;;;29.25;42.65;100755.94;5032452;28;20021;-87
2022/05/15 08:39:29;;;;;;;18.17;8.95;;;;;;;28.90;43.39;100758.78;5028546;28;20105;-86
2022/05/15 08:42:01;;;;;;;17.48;8.93;;;;;;;29.17;43.28;100759.22;5024512;28;20038;-89
2022/05/15 08:44:35;;;;;;;21.42;8.73;;;;;;;30.22;40.25;100768.75;5014447;28;20038;-85
2022/05/15 08:47:40;;;;;;;21.08;8.38;;;;;;;30.02;40.97;100771.66;5016523;28;20069;-87
2022/05/15 08:50:18;;;;;;;16.17;8.68;;;;;;;30.84;39.60;100766.25;5010473;28;20133;-84
2022/05/15 08:53:14;;;;;;;29.00;8.00;;;;;;;31.73;38.74;100766.28;5015093;28;20034;-85
2022/05/15 08:55:43;;;;;;;18.70;8.32;;;;;;;31.19;38.36;100763.13;4997048;28;20488;-86
2022/05/15 08:58:14;;;;;;;12.60;6.88;;;;;;;31.81;37.83;100763.97;5014010;28;20117;-84
2022/05/15 09:00:46;;;;;;;20.23;9.25;;;;;;;31.38;37.94;100765.94;5003810;28;20033;-86
2022/05/15 09:03:12;;;;;;;;;;;;;;;31.89;37.08;100764.09;5036397;28;20032;-81
2022/05/15 09:05:39;;;;;;;18.67;8.55;;;;;;;31.78;37.97;100766.19;5017846;28;20003;-87
2022/05/15 09:08:37;;;;;;;14.95;8.63;;;;;;;31.33;38.68;100760.50;4998694;28;20095;-83
2022/05/15 09:11:06;;;;;;;21.50;9.38;;;;;;;30.28;40.91;100764.06;5014797;28;20160;-84
2022/05/15 09:14:07;;;;;;;23.08;10.32;;;;;;;29.47;42.72;100759.09;5014157;28;20034;-85
2022/05/15 09:16:35;;;;;;;21.20;9.88;;;;;;;29.49;43.17;100762.38;4991336;28;20473;-84
2022/05/15 09:19:02;;;;;;;17.83;9.57;;;;;;;28.81;43.14;100755.78;4995840;28;20038;-85
2022/05/15 09:21:30;;;;;;;31.55;11.70;;;;;;;29.47;42.55;100761.84;5015079;28;20040;-85
2022/05/15 09:24:06;;;;;;;18.90;8.95;;;;;;;29.83;42.54;100762.47;5014981;28;20026;-85
2022/05/15 09:26:43;;;;;;;16.40;8.90;;;;;;;29.30;42.80;100755.91;5016687;28;20405;-89
2022/05/15 09:29:21;;;;;;;23.85;8.55;;;;;;;29.04;42.76;100749.72;5016294;28;20388;-87
2022/05/15 09:31:47;;;;;;;21.88;10.00;;;;;;;29.24;42.05;100754.28;5015143;28;20509;-85
2022/05/15 09:34:28;;;;;;;29.77;10.20;;;;;;;29.82;40.83;100744.44;5014707;28;20033;-83
2022/05/15 09:39:46;;;;;;;18.92;9.10;;;;;;;30.59;40.54;100753.69;5013905;28;20469;-87
2022/05/15 09:45:25;;;;;;;18.77;8.73;;;;;;;31.73;37.40;100746.25;5014348;28;20041;-89
2022/05/15 09:47:54;;;;;;;18.83;9.40;;;;;;;31.56;38.70;100751.44;5021514;28;20034;-92
2022/05/15 09:50:47;;;;;;;22.15;11.15;;;;;;;31.38;38.50;100752.22;5021293;28;20041;-92
2022/05/15 09:53:43;;;;;;;32.50;11.25;;;;;;;31.49;37.78;100746.31;5015507;28;20044;-87
2022/05/15 09:56:30;;;;;;;22.60;13.80;;;;;;;32.02;37.69;100746.91;5015247;28;20041;-93
2022/05/15 09:59:10;;;;;;;21.92;10.48;;;;;;;31.64;37.49;100742.56;5020509;28;20034;-90
2022/05/15 10:01:49;;;;;;;21.80;9.77;;;;;;;30.70;40.22;100745.06;4990522;28;20086;-89
2022/05/15 10:04:24;;;;;;;22.52;10.30;;;;;;;30.22;41.50;100743.31;5009280;28;20060;-90
2022/05/15 10:06:55;;;;;;;16.85;9.68;;;;;;;30.48;40.83;100741.19;5016102;28;20386;-90
2022/05/15 10:09:36;;;;;;;15.85;8.45;;;;;;;31.18;39.76;100737.69;5011744;28;20045;-90
2022/05/15 10:12:10;;;;;;;38.30;22.55;;;;;;;31.61;38.76;100745.91;5021172;28;20034;-90
2022/05/15 10:14:44;;;;;;;51.88;34.00;;;;;;;31.92;37.51;100741.56;5017984;28;20038;-86
2022/05/15 10:17:29;;;;;;;32.78;8.63;;;;;;;31.42;38.30;100740.38;5032116;28;20034;-87
2022/05/15 10:20:19;;;;;;;20.90;8.18;;;;;;;31.08;40.07;100737.81;5033347;28;20049;-87
2022/05/15 10:23:29;;;;;;;17.52;7.30;;;;;;;31.62;37.53;100739.31;5041318;28;20026;-89
2022/05/15 10:30:13;;;;;;;17.67;6.93;;;;;;;30.34;38.62;100729.25;5025045;28;20053;-87
2022/05/15 10:36:02;;;;;;;14.10;6.65;;;;;;;29.70;40.54;100724.81;4271032;26;20029;-88
2022/05/15 10:39:25;;;;;;;19.05;6.68;;;;;;;30.06;40.26;100720.75;5064046;28;20037;-86
2022/05/15 10:45:53;;;;;;;15.18;6.80;;;;;;;30.55;39.64;100717.06;5058792;23;20030;-88
2022/05/15 10:48:51;;;;;;;16.38;6.78;;;;;;;30.74;39.70;100717.94;5043647;28;20075;-90
2022/05/15 10:51:20;;;;;;;14.85;7.03;;;;;;;31.35;38.31;100717.22;5053478;28;20178;-88
2022/05/15 10:57:26;;;;;;;14.50;6.90;;;;;;;30.82;39.95;100709.09;5058630;28;20231;-88
2022/05/15 11:00:05;;;;;;;19.98;6.28;;;;;;;30.83;38.58;100699.75;5043210;28;20040;-88
2022/05/15 11:02:52;;;;;;;15.18;5.60;;;;;;;31.51;37.88;100702.22;5040790;28;20033;-90
2022/05/15 11:05:27;;;;;;;12.05;5.53;;;;;;;31.79;36.55;100712.19;5042622;28;20037;-87
2022/05/15 11:08:02;;;;;;;21.55;6.15;;;;;;;31.18;37.92;100702.09;5041901;28;20090;-88
2022/05/15 11:10:49;;;;;;;22.55;6.13;;;;;;;31.26;36.94;100693.19;5056704;28;20028;-85
2022/05/15 11:13:25;;;;;;;11.95;6.32;;;;;;;30.57;39.58;100692.94;5058370;28;20029;-86
2022/05/15 11:15:57;;;;;;;17.77;5.45;;;;;;;30.77;38.95;100692.72;5057447;28;20037;-89
2022/05/15 11:18:55;;;;;;;15.73;5.82;;;;;;;31.59;37.78;100690.56;5040935;28;20060;-84
2022/05/15 11:21:31;;;;;;;15.80;4.97;;;;;;;31.45;37.22;100692.41;5058962;28;20037;-86
2022/05/15 11:24:09;;;;;;;13.40;6.15;;;;;;;31.72;37.32;100684.31;5040791;28;20032;-86
2022/05/15 11:26:42;;;;;;;15.75;6.53;;;;;;;31.47;37.91;100691.00;5041049;28;20044;-89
2022/05/15 11:29:15;;;;;;;11.80;6.50;;;;;;;31.14;38.75;100686.53;5060098;28;20067;-89
2022/05/15 11:31:50;;;;;;;15.15;6.15;;;;;;;30.44;39.84;100682.69;5040714;28;20069;-87
2022/05/15 11:34:18;;;;;;;11.30;5.55;;;;;;;30.42;39.37;100676.72;5053404;28;20365;-87
2022/05/15 11:36:47;;;;;;;15.82;6.57;;;;;;;30.01;40.62;100677.06;5011081;28;20575;-85
2022/05/15 11:39:15;;;;;;;13.65;5.32;;;;;;;29.36;41.25;100688.44;5022681;28;20030;-85
2022/05/15 11:41:44;;;;;;;18.23;4.93;;;;;;;29.33;42.08;100681.66;5032280;28;20036;-86
2022/05/15 11:44:31;;;;;;;19.08;6.55;;;;;;;29.15;42.89;100672.16;5048294;28;20079;-90
2022/05/15 11:46:59;;;;;;;13.45;6.82;;;;;;;28.72;43.04;100670.16;5020926;28;20188;-90
2022/05/15 11:49:40;;;;;;;23.15;14.75;;;;;;;28.84;43.59;100662.47;5019386;28;20045;-88
2022/05/15 11:52:08;;;;;;;27.38;7.18;;;;;;;28.59;45.04;100666.09;5020677;28;20112;-87
2022/05/15 11:54:37;;;;;;;17.83;5.82;;;;;;;28.54;45.22;100668.00;5040302;28;20040;-88
2022/05/15 11:57:07;;;;;;;15.70;5.93;;;;;;;28.23;45.66;100662.63;5041442;28;20041;-87
2022/05/15 11:59:55;;;;;;;20.60;6.93;;;;;;;28.12;46.03;100662.91;5025265;28;20112;-87
2022/05/15 12:02:29;;;;;;;19.50;5.93;;;;;;;28.13;46.86;100654.47;5042125;28;20057;-86
2022/05/15 12:05:09;;;;;;;11.15;5.63;;;;;;;28.06;45.99;100656.66;5051943;28;20040;-87
2022/05/15 12:07:53;;;;;;;12.02;5.97;;;;;;;28.06;45.73;100644.94;5034942;28;20040;-88
2022/05/15 12:10:40;;;;;;;16.00;6.10;;;;;;;27.71;47.54;100643.00;5003229;28;20045;-86
2022/05/15 12:13:08;;;;;;;16.30;5.18;;;;;;;27.77;47.21;100641.94;4994896;28;20050;-89
2022/05/15 12:15:47;;;;;;;9.07;5.38;;;;;;;27.92;46.61;100627.47;5027854;28;20084;-88
2022/05/15 12:18:25;;;;;;;13.05;5.97;;;;;;;27.74;46.65;100631.59;5033956;28;20384;-88